sensor_id;sensor_type;location;lat;lon;timestamp;temperature;humidity
13446;DHT22;6795;51.232;3.764;2023-09-08T00:06:58;17.40;99.90
13446;DHT22;6795;51.232;3.764;2023-09-08T00:10:09;17.30;99.90
13446;DHT22;6795;51.232;3.764;2023-09-08T00:17:26;17.10;99.90
13446;DHT22;6795;51.232;3.764;2023-09-08T00:20:38;17.00;99.90
13446;DHT22;6795;51.232;3.764;2023-09-08T00:23:45;17.10;99.90
13446;DHT22;6795;51.232;3.764;2023-09-08T00:30:09;17.00;99.90
13446;DHT22;6795;51.232;3.764;2023-09-08T00:33:30;16.90;99.90
13446;DHT22;6795;51.232;3.764;2023-09-08T00:36:59;16.80;99.90
13446;DHT22;6795;51.232;3.764;2023-09-08T00:40:04;16.80;99.90
13446;DHT22;6795;51.232;3.764;2023-09-08T00:43:34;16.80;99.90
13446;DHT22;6795;51.232;3.764;2023-09-08T00:46:55;16.90;99.90
13446;DHT22;6795;51.232;3.764;2023-09-08T00:50:05;16.80;99.90
13446;DHT22;6795;51.232;3.764;2023-09-08T00:53:15;16.80;99.90
13446;DHT22;6795;51.232;3.764;2023-09-08T00:56:23;16.70;99.90
13446;DHT22;6795;51.232;3.764;2023-09-08T00:59:36;16.80;99.90
13446;DHT22;6795;51.232;3.764;2023-09-08T01:02:41;16.90;99.90
13446;DHT22;6795;51.232;3.764;2023-09-08T01:05:56;16.80;99.90
13446;DHT22;6795;51.232;3.764;2023-09-08T01:09:17;16.70;99.90
13446;DHT22;6795;51.232;3.764;2023-09-08T01:12:30;16.60;99.90
13446;DHT22;6795;51.232;3.764;2023-09-08T01:16:12;16.50;99.90
13446;DHT22;6795;51.232;3.764;2023-09-08T01:19:48;16.50;99.90
13446;DHT22;6795;51.232;3.764;2023-09-08T01:23:22;16.40;99.90
13446;DHT22;6795;51.232;3.764;2023-09-08T01:27:02;16.50;99.90
13446;DHT22;6795;51.232;3.764;2023-09-08T01:30:14;16.50;99.90
13446;DHT22;6795;51.232;3.764;2023-09-08T01:37:14;16.50;99.90
13446;DHT22;6795;51.232;3.764;2023-09-08T01:40:41;16.40;99.90
13446;DHT22;6795;51.232;3.764;2023-09-08T01:51:01;16.30;99.90
13446;DHT22;6795;51.232;3.764;2023-09-08T01:54:32;16.20;99.90
13446;DHT22;6795;51.232;3.764;2023-09-08T01:57:59;16.30;99.90
13446;DHT22;6795;51.232;3.764;2023-09-08T02:01:12;16.60;99.90
13446;DHT22;6795;51.232;3.764;2023-09-08T02:04:57;16.60;99.90
13446;DHT22;6795;51.232;3.764;2023-09-08T02:08:03;16.40;99.90
13446;DHT22;6795;51.232;3.764;2023-09-08T02:11:52;16.40;99.90
13446;DHT22;6795;51.232;3.764;2023-09-08T02:15:27;16.20;99.90
13446;DHT22;6795;51.232;3.764;2023-09-08T02:18:32;16.10;99.90
13446;DHT22;6795;51.232;3.764;2023-09-08T02:22:16;16.10;99.90
13446;DHT22;6795;51.232;3.764;2023-09-08T02:25:20;16.10;99.90
13446;DHT22;6795;51.232;3.764;2023-09-08T02:28:20;16.20;99.90
13446;DHT22;6795;51.232;3.764;2023-09-08T02:31:25;16.40;99.90
13446;DHT22;6795;51.232;3.764;2023-09-08T02:34:36;16.40;99.90
13446;DHT22;6795;51.232;3.764;2023-09-08T02:37:49;16.40;99.90
13446;DHT22;6795;51.232;3.764;2023-09-08T02:42:38;16.30;99.90
13446;DHT22;6795;51.232;3.764;2023-09-08T02:44:36;16.20;99.90
13446;DHT22;6795;51.232;3.764;2023-09-08T02:48:27;16.10;99.90
13446;DHT22;6795;51.232;3.764;2023-09-08T02:51:45;16.10;99.90
13446;DHT22;6795;51.232;3.764;2023-09-08T02:55:13;16.30;99.90
13446;DHT22;6795;51.232;3.764;2023-09-08T02:58:33;16.20;99.90
13446;DHT22;6795;51.232;3.764;2023-09-08T03:02:04;16.00;99.90
13446;DHT22;6795;51.232;3.764;2023-09-08T03:05:37;15.90;99.90
13446;DHT22;6795;51.232;3.764;2023-09-08T03:09:00;15.80;99.90
13446;DHT22;6795;51.232;3.764;2023-09-08T03:12:34;15.70;99.90
13446;DHT22;6795;51.232;3.764;2023-09-08T03:15:42;15.80;99.90
13446;DHT22;6795;51.232;3.764;2023-09-08T03:19:21;15.80;99.90
13446;DHT22;6795;51.232;3.764;2023-09-08T03:22:38;15.80;99.90
13446;DHT22;6795;51.232;3.764;2023-09-08T03:25:52;15.70;99.90
13446;DHT22;6795;51.232;3.764;2023-09-08T03:28:58;15.70;99.90
13446;DHT22;6795;51.232;3.764;2023-09-08T03:32:35;15.70;99.90
13446;DHT22;6795;51.232;3.764;2023-09-08T03:35:38;15.60;99.90
13446;DHT22;6795;51.232;3.764;2023-09-08T03:38:51;15.50;99.90
13446;DHT22;6795;51.232;3.764;2023-09-08T03:44:14;15.50;99.90
13446;DHT22;6795;51.232;3.764;2023-09-08T03:49:27;15.40;99.90
13446;DHT22;6795;51.232;3.764;2023-09-08T03:52:46;15.40;99.90
13446;DHT22;6795;51.232;3.764;2023-09-08T03:55:55;15.40;99.90
13446;DHT22;6795;51.232;3.764;2023-09-08T03:59:20;15.30;99.90
13446;DHT22;6795;51.232;3.764;2023-09-08T04:02:27;15.30;99.90
13446;DHT22;6795;51.232;3.764;2023-09-08T04:06:22;15.40;99.90
13446;DHT22;6795;51.232;3.764;2023-09-08T04:09:55;15.30;99.90
13446;DHT22;6795;51.232;3.764;2023-09-08T04:13:01;15.20;99.90
13446;DHT22;6795;51.232;3.764;2023-09-08T04:16:35;15.20;99.90
13446;DHT22;6795;51.232;3.764;2023-09-08T04:19:51;15.20;99.90
13446;DHT22;6795;51.232;3.764;2023-09-08T04:22:48;15.20;99.90
13446;DHT22;6795;51.232;3.764;2023-09-08T04:25:49;15.20;99.90
13446;DHT22;6795;51.232;3.764;2023-09-08T04:29:51;15.30;99.90
13446;DHT22;6795;51.232;3.764;2023-09-08T04:32:51;15.30;99.90
13446;DHT22;6795;51.232;3.764;2023-09-08T04:36:13;15.30;99.90
13446;DHT22;6795;51.232;3.764;2023-09-08T04:47:20;15.30;99.90
13446;DHT22;6795;51.232;3.764;2023-09-08T04:51:01;15.40;99.90
13446;DHT22;6795;51.232;3.764;2023-09-08T04:54:49;15.30;99.90
13446;DHT22;6795;51.232;3.764;2023-09-08T04:57:46;15.30;99.90
13446;DHT22;6795;51.232;3.764;2023-09-08T05:01:09;15.30;99.90
13446;DHT22;6795;51.232;3.764;2023-09-08T05:04:46;15.20;99.90
13446;DHT22;6795;51.232;3.764;2023-09-08T05:08:16;15.20;99.90
13446;DHT22;6795;51.232;3.764;2023-09-08T05:11:38;15.10;99.90
13446;DHT22;6795;51.232;3.764;2023-09-08T05:14:49;15.20;99.90
13446;DHT22;6795;51.232;3.764;2023-09-08T05:18:21;15.10;99.90
13446;DHT22;6795;51.232;3.764;2023-09-08T05:21:45;15.10;99.90
13446;DHT22;6795;51.232;3.764;2023-09-08T05:25:09;15.00;99.90
13446;DHT22;6795;51.232;3.764;2023-09-08T05:28:16;15.00;99.90
13446;DHT22;6795;51.232;3.764;2023-09-08T05:31:18;15.00;99.90
13446;DHT22;6795;51.232;3.764;2023-09-08T05:34:33;15.10;99.90
13446;DHT22;6795;51.232;3.764;2023-09-08T05:37:45;15.20;99.90
13446;DHT22;6795;51.232;3.764;2023-09-08T05:41:04;15.40;99.90
13446;DHT22;6795;51.232;3.764;2023-09-08T05:44:34;15.60;99.90
13446;DHT22;6795;51.232;3.764;2023-09-08T05:47:50;16.20;99.90
13446;DHT22;6795;51.232;3.764;2023-09-08T05:51:09;16.70;99.90
13446;DHT22;6795;51.232;3.764;2023-09-08T05:59:08;17.60;99.90
13446;DHT22;6795;51.232;3.764;2023-09-08T06:02:30;18.00;99.90
13446;DHT22;6795;51.232;3.764;2023-09-08T06:05:44;18.30;99.90
13446;DHT22;6795;51.232;3.764;2023-09-08T06:09:03;18.50;99.90
13446;DHT22;6795;51.232;3.764;2023-09-08T06:12:07;19.00;99.90
13446;DHT22;6795;51.232;3.764;2023-09-08T06:15:25;19.50;99.90
13446;DHT22;6795;51.232;3.764;2023-09-08T06:18:21;20.10;99.90
13446;DHT22;6795;51.232;3.764;2023-09-08T06:21:20;20.50;99.90
13446;DHT22;6795;51.232;3.764;2023-09-08T06:24:36;21.00;99.90
13446;DHT22;6795;51.232;3.764;2023-09-08T06:28:15;21.50;99.90
13446;DHT22;6795;51.232;3.764;2023-09-08T06:34:57;22.40;99.90
13446;DHT22;6795;51.232;3.764;2023-09-08T06:38:28;22.90;99.90
13446;DHT22;6795;51.232;3.764;2023-09-08T06:47:12;23.60;99.90
13446;DHT22;6795;51.232;3.764;2023-09-08T06:52:11;24.20;99.90
13446;DHT22;6795;51.232;3.764;2023-09-08T06:55:35;24.40;99.90
13446;DHT22;6795;51.232;3.764;2023-09-08T06:59:24;24.90;99.90
13446;DHT22;6795;51.232;3.764;2023-09-08T07:03:13;25.50;99.90
13446;DHT22;6795;51.232;3.764;2023-09-08T07:06:41;26.00;99.90
13446;DHT22;6795;51.232;3.764;2023-09-08T07:10:00;26.40;99.90
13446;DHT22;6795;51.232;3.764;2023-09-08T07:13:37;26.50;99.90
13446;DHT22;6795;51.232;3.764;2023-09-08T07:17:37;26.30;99.90
13446;DHT22;6795;51.232;3.764;2023-09-08T07:20:48;26.50;99.90
13446;DHT22;6795;51.232;3.764;2023-09-08T07:24:00;26.90;99.90
13446;DHT22;6795;51.232;3.764;2023-09-08T07:27:03;27.10;99.90
13446;DHT22;6795;51.232;3.764;2023-09-08T07:30:16;27.50;99.90
13446;DHT22;6795;51.232;3.764;2023-09-08T07:33:32;28.00;99.90
13446;DHT22;6795;51.232;3.764;2023-09-08T07:36:36;28.10;99.90
13446;DHT22;6795;51.232;3.764;2023-09-08T07:40:05;28.10;99.90
13446;DHT22;6795;51.232;3.764;2023-09-08T07:43:53;28.20;99.90
13446;DHT22;6795;51.232;3.764;2023-09-08T07:47:38;27.80;99.90
13446;DHT22;6795;51.232;3.764;2023-09-08T07:50:38;27.90;99.90
13446;DHT22;6795;51.232;3.764;2023-09-08T07:53:59;28.20;99.90
13446;DHT22;6795;51.232;3.764;2023-09-08T07:57:28;28.50;99.90
13446;DHT22;6795;51.232;3.764;2023-09-08T08:00:51;28.90;99.90
13446;DHT22;6795;51.232;3.764;2023-09-08T08:04:18;28.60;99.90
13446;DHT22;6795;51.232;3.764;2023-09-08T08:07:55;28.60;99.90
13446;DHT22;6795;51.232;3.764;2023-09-08T08:11:20;28.90;99.90
13446;DHT22;6795;51.232;3.764;2023-09-08T08:14:32;29.00;99.90
13446;DHT22;6795;51.232;3.764;2023-09-08T08:17:55;29.00;99.90
13446;DHT22;6795;51.232;3.764;2023-09-08T08:21:11;29.10;99.90
13446;DHT22;6795;51.232;3.764;2023-09-08T08:25:22;29.50;99.90
13446;DHT22;6795;51.232;3.764;2023-09-08T08:28:38;30.10;99.90
13446;DHT22;6795;51.232;3.764;2023-09-08T08:32:27;30.80;99.90
13446;DHT22;6795;51.232;3.764;2023-09-08T08:35:35;30.90;99.90
13446;DHT22;6795;51.232;3.764;2023-09-08T08:40:53;31.10;99.90
13446;DHT22;6795;51.232;3.764;2023-09-08T08:46:46;31.00;99.90
13446;DHT22;6795;51.232;3.764;2023-09-08T08:49:41;31.50;99.90
13446;DHT22;6795;51.232;3.764;2023-09-08T08:53:27;31.50;99.90
13446;DHT22;6795;51.232;3.764;2023-09-08T08:57:09;31.20;99.90
13446;DHT22;6795;51.232;3.764;2023-09-08T09:00:44;31.60;99.90
13446;DHT22;6795;51.232;3.764;2023-09-08T09:04:45;31.50;99.90
13446;DHT22;6795;51.232;3.764;2023-09-08T09:07:49;31.70;99.90
13446;DHT22;6795;51.232;3.764;2023-09-08T09:10:56;32.10;99.90
13446;DHT22;6795;51.232;3.764;2023-09-08T09:14:09;32.00;99.90
13446;DHT22;6795;51.232;3.764;2023-09-08T09:18:58;31.80;99.90
13446;DHT22;6795;51.232;3.764;2023-09-08T09:24:34;31.90;99.90
13446;DHT22;6795;51.232;3.764;2023-09-08T09:27:58;31.90;99.90
13446;DHT22;6795;51.232;3.764;2023-09-08T09:31:36;31.70;99.90
13446;DHT22;6795;51.232;3.764;2023-09-08T09:35:05;32.00;99.90
13446;DHT22;6795;51.232;3.764;2023-09-08T09:38:08;32.30;99.90
13446;DHT22;6795;51.232;3.764;2023-09-08T09:41:30;32.90;99.90
13446;DHT22;6795;51.232;3.764;2023-09-08T09:45:27;32.90;99.90
13446;DHT22;6795;51.232;3.764;2023-09-08T09:49:01;33.10;99.90
13446;DHT22;6795;51.232;3.764;2023-09-08T09:56:16;32.90;99.90
13446;DHT22;6795;51.232;3.764;2023-09-08T09:58:59;33.20;99.90
13446;DHT22;6795;51.232;3.764;2023-09-08T10:02:24;33.40;99.90
13446;DHT22;6795;51.232;3.764;2023-09-08T10:06:00;33.20;99.90
13446;DHT22;6795;51.232;3.764;2023-09-08T10:09:08;33.20;99.90
13446;DHT22;6795;51.232;3.764;2023-09-08T10:12:27;33.50;99.90
13446;DHT22;6795;51.232;3.764;2023-09-08T10:15:26;33.90;99.90
13446;DHT22;6795;51.232;3.764;2023-09-08T10:18:37;33.70;99.90
13446;DHT22;6795;51.232;3.764;2023-09-08T10:22:06;33.80;99.90
13446;DHT22;6795;51.232;3.764;2023-09-08T10:25:09;34.60;99.90
13446;DHT22;6795;51.232;3.764;2023-09-08T10:31:38;35.00;99.90
13446;DHT22;6795;51.232;3.764;2023-09-08T10:42:35;34.90;99.90
13446;DHT22;6795;51.232;3.764;2023-09-08T10:46:20;34.70;99.90
13446;DHT22;6795;51.232;3.764;2023-09-08T10:53:22;34.40;99.90
13446;DHT22;6795;51.232;3.764;2023-09-08T10:57:07;34.40;99.90
13446;DHT22;6795;51.232;3.764;2023-09-08T11:00:48;34.30;99.90
13446;DHT22;6795;51.232;3.764;2023-09-08T11:04:13;33.90;99.90
13446;DHT22;6795;51.232;3.764;2023-09-08T11:07:24;34.00;99.90
13446;DHT22;6795;51.232;3.764;2023-09-08T11:10:42;33.70;99.90
13446;DHT22;6795;51.232;3.764;2023-09-08T11:13:48;33.70;99.90
13446;DHT22;6795;51.232;3.764;2023-09-08T11:17:15;33.60;99.90
13446;DHT22;6795;51.232;3.764;2023-09-08T11:20:45;33.80;99.90
13446;DHT22;6795;51.232;3.764;2023-09-08T11:27:43;33.30;99.90
13446;DHT22;6795;51.232;3.764;2023-09-08T11:30:59;33.30;99.90
13446;DHT22;6795;51.232;3.764;2023-09-08T11:34:30;33.30;99.90
13446;DHT22;6795;51.232;3.764;2023-09-08T11:38:07;33.40;99.90
13446;DHT22;6795;51.232;3.764;2023-09-08T11:41:22;33.30;99.90
13446;DHT22;6795;51.232;3.764;2023-09-08T11:48:35;33.10;99.90
13446;DHT22;6795;51.232;3.764;2023-09-08T11:52:22;33.00;99.90
13446;DHT22;6795;51.232;3.764;2023-09-08T11:55:30;32.80;99.90
13446;DHT22;6795;51.232;3.764;2023-09-08T11:59:10;32.40;99.90
13446;DHT22;6795;51.232;3.764;2023-09-08T12:06:16;32.80;99.90
13446;DHT22;6795;51.232;3.764;2023-09-08T12:09:31;32.90;99.90
13446;DHT22;6795;51.232;3.764;2023-09-08T12:13:21;32.90;99.90
13446;DHT22;6795;51.232;3.764;2023-09-08T12:16:23;32.80;99.90
13446;DHT22;6795;51.232;3.764;2023-09-08T12:20:05;33.20;99.90
13446;DHT22;6795;51.232;3.764;2023-09-08T12:23:49;33.20;98.30
13446;DHT22;6795;51.232;3.764;2023-09-08T12:27:00;33.20;99.70
13446;DHT22;6795;51.232;3.764;2023-09-08T12:30:15;33.40;99.90
13446;DHT22;6795;51.232;3.764;2023-09-08T12:33:42;33.20;99.90
13446;DHT22;6795;51.232;3.764;2023-09-08T12:37:43;33.30;98.70
13446;DHT22;6795;51.232;3.764;2023-09-08T12:41:34;32.80;99.90
13446;DHT22;6795;51.232;3.764;2023-09-08T12:44:24;33.00;99.30
13446;DHT22;6795;51.232;3.764;2023-09-08T12:47:34;33.20;99.00
13446;DHT22;6795;51.232;3.764;2023-09-08T12:58:17;32.90;99.60
13446;DHT22;6795;51.232;3.764;2023-09-08T13:01:40;33.00;99.80
13446;DHT22;6795;51.232;3.764;2023-09-08T13:05:33;33.20;98.30
13446;DHT22;6795;51.232;3.764;2023-09-08T13:08:32;33.30;96.10
13446;DHT22;6795;51.232;3.764;2023-09-08T13:11:43;33.30;97.60
13446;DHT22;6795;51.232;3.764;2023-09-08T13:15:03;33.40;97.60
13446;DHT22;6795;51.232;3.764;2023-09-08T13:18:07;33.40;98.80
13446;DHT22;6795;51.232;3.764;2023-09-08T13:21:18;33.50;98.50
13446;DHT22;6795;51.232;3.764;2023-09-08T13:24:34;33.70;97.20
13446;DHT22;6795;51.232;3.764;2023-09-08T13:27:44;33.70;98.00
13446;DHT22;6795;51.232;3.764;2023-09-08T13:31:07;33.60;97.40
13446;DHT22;6795;51.232;3.764;2023-09-08T13:34:27;33.80;96.60
13446;DHT22;6795;51.232;3.764;2023-09-08T13:37:54;34.20;96.40
13446;DHT22;6795;51.232;3.764;2023-09-08T13:41:58;34.20;96.10
13446;DHT22;6795;51.232;3.764;2023-09-08T13:44:50;34.20;95.60
13446;DHT22;6795;51.232;3.764;2023-09-08T13:48:11;34.30;96.50
13446;DHT22;6795;51.232;3.764;2023-09-08T13:51:30;34.50;95.60
13446;DHT22;6795;51.232;3.764;2023-09-08T13:55:13;34.00;95.20
13446;DHT22;6795;51.232;3.764;2023-09-08T13:58:36;33.10;94.50
13446;DHT22;6795;51.232;3.764;2023-09-08T14:01:58;32.60;94.80
13446;DHT22;6795;51.232;3.764;2023-09-08T14:05:33;32.10;99.90
13446;DHT22;6795;51.232;3.764;2023-09-08T14:08:50;31.70;99.90
13446;DHT22;6795;51.232;3.764;2023-09-08T14:12:07;31.70;99.90
13446;DHT22;6795;51.232;3.764;2023-09-08T14:32:02;30.60;99.90
13446;DHT22;6795;51.232;3.764;2023-09-08T14:35:25;30.50;99.90
13446;DHT22;6795;51.232;3.764;2023-09-08T14:38:50;30.30;99.90
13446;DHT22;6795;51.232;3.764;2023-09-08T14:42:21;30.40;99.90
13446;DHT22;6795;51.232;3.764;2023-09-08T14:45:42;30.40;99.90
13446;DHT22;6795;51.232;3.764;2023-09-08T14:49:16;30.10;99.90
13446;DHT22;6795;51.232;3.764;2023-09-08T14:52:34;29.70;99.90
13446;DHT22;6795;51.232;3.764;2023-09-08T14:56:06;29.50;99.90
13446;DHT22;6795;51.232;3.764;2023-09-08T14:59:46;29.40;99.90
13446;DHT22;6795;51.232;3.764;2023-09-08T15:03:10;29.50;99.90
13446;DHT22;6795;51.232;3.764;2023-09-08T15:06:44;29.40;99.90
13446;DHT22;6795;51.232;3.764;2023-09-08T15:09:52;29.20;99.90
13446;DHT22;6795;51.232;3.764;2023-09-08T15:13:12;28.80;99.90
13446;DHT22;6795;51.232;3.764;2023-09-08T15:16:59;29.00;99.90
13446;DHT22;6795;51.232;3.764;2023-09-08T15:20:11;28.90;99.90
13446;DHT22;6795;51.232;3.764;2023-09-08T15:24:02;29.00;99.90
13446;DHT22;6795;51.232;3.764;2023-09-08T15:27:48;29.10;99.90
13446;DHT22;6795;51.232;3.764;2023-09-08T15:31:17;29.00;99.90
13446;DHT22;6795;51.232;3.764;2023-09-08T15:34:30;28.70;99.90
13446;DHT22;6795;51.232;3.764;2023-09-08T15:45:14;28.40;99.90
13446;DHT22;6795;51.232;3.764;2023-09-08T15:49:04;28.50;99.90
13446;DHT22;6795;51.232;3.764;2023-09-08T15:52:56;28.10;99.90
13446;DHT22;6795;51.232;3.764;2023-09-08T15:56:29;28.00;99.90
13446;DHT22;6795;51.232;3.764;2023-09-08T15:59:59;27.70;99.90
13446;DHT22;6795;51.232;3.764;2023-09-08T16:03:55;27.50;99.90
13446;DHT22;6795;51.232;3.764;2023-09-08T16:07:20;27.30;99.90
13446;DHT22;6795;51.232;3.764;2023-09-08T16:10:34;27.20;99.90
13446;DHT22;6795;51.232;3.764;2023-09-08T16:13:42;27.10;99.90
13446;DHT22;6795;51.232;3.764;2023-09-08T16:17:08;26.90;99.90
13446;DHT22;6795;51.232;3.764;2023-09-08T16:23:53;26.40;99.90
13446;DHT22;6795;51.232;3.764;2023-09-08T16:27:04;26.40;99.90
13446;DHT22;6795;51.232;3.764;2023-09-08T16:30:30;26.30;99.90
13446;DHT22;6795;51.232;3.764;2023-09-08T16:33:55;26.10;99.90
13446;DHT22;6795;51.232;3.764;2023-09-08T16:37:30;25.90;99.90
13446;DHT22;6795;51.232;3.764;2023-09-08T16:41:07;25.80;99.90
13446;DHT22;6795;51.232;3.764;2023-09-08T16:44:02;25.70;99.90
13446;DHT22;6795;51.232;3.764;2023-09-08T16:47:25;25.60;99.90
13446;DHT22;6795;51.232;3.764;2023-09-08T16:50:36;25.40;99.90
13446;DHT22;6795;51.232;3.764;2023-09-08T16:57:56;25.20;99.90
13446;DHT22;6795;51.232;3.764;2023-09-08T17:01:30;25.10;99.90
13446;DHT22;6795;51.232;3.764;2023-09-08T17:04:49;25.00;99.90
13446;DHT22;6795;51.232;3.764;2023-09-08T17:08:29;24.80;99.90
13446;DHT22;6795;51.232;3.764;2023-09-08T17:11:49;24.60;99.90
13446;DHT22;6795;51.232;3.764;2023-09-08T17:15:33;24.50;99.90
13446;DHT22;6795;51.232;3.764;2023-09-08T17:19:08;24.40;99.90
13446;DHT22;6795;51.232;3.764;2023-09-08T17:22:44;24.20;99.90
13446;DHT22;6795;51.232;3.764;2023-09-08T17:26:09;24.10;99.90
13446;DHT22;6795;51.232;3.764;2023-09-08T17:29:27;24.00;99.90
13446;DHT22;6795;51.232;3.764;2023-09-08T17:32:56;23.90;99.90
13446;DHT22;6795;51.232;3.764;2023-09-08T17:36:21;23.70;99.90
13446;DHT22;6795;51.232;3.764;2023-09-08T17:39:37;23.50;99.90
13446;DHT22;6795;51.232;3.764;2023-09-08T17:46:18;23.20;99.90
13446;DHT22;6795;51.232;3.764;2023-09-08T17:49:52;23.10;99.90
13446;DHT22;6795;51.232;3.764;2023-09-08T17:56:24;22.70;99.90
13446;DHT22;6795;51.232;3.764;2023-09-08T18:00:10;22.50;99.90
13446;DHT22;6795;51.232;3.764;2023-09-08T18:03:49;22.20;99.90
13446;DHT22;6795;51.232;3.764;2023-09-08T18:07:37;21.90;99.90
13446;DHT22;6795;51.232;3.764;2023-09-08T18:10:59;21.60;99.90
13446;DHT22;6795;51.232;3.764;2023-09-08T18:14:17;21.40;99.90
13446;DHT22;6795;51.232;3.764;2023-09-08T18:17:38;21.20;99.90
13446;DHT22;6795;51.232;3.764;2023-09-08T18:21:16;21.10;99.90
13446;DHT22;6795;51.232;3.764;2023-09-08T18:24:36;21.00;99.90
13446;DHT22;6795;51.232;3.764;2023-09-08T18:27:42;20.80;99.90
13446;DHT22;6795;51.232;3.764;2023-09-08T18:31:12;20.90;99.90
13446;DHT22;6795;51.232;3.764;2023-09-08T18:38:14;20.60;99.90
13446;DHT22;6795;51.232;3.764;2023-09-08T18:41:52;20.40;99.90
13446;DHT22;6795;51.232;3.764;2023-09-08T18:48:26;19.90;99.90
13446;DHT22;6795;51.232;3.764;2023-09-08T18:51:44;19.70;99.90
13446;DHT22;6795;51.232;3.764;2023-09-08T18:55:37;19.50;99.90
13446;DHT22;6795;51.232;3.764;2023-09-08T18:58:18;19.30;99.90
13446;DHT22;6795;51.232;3.764;2023-09-08T19:01:43;19.20;99.90
13446;DHT22;6795;51.232;3.764;2023-09-08T19:05:01;19.00;99.90
13446;DHT22;6795;51.232;3.764;2023-09-08T19:08:11;19.10;99.90
13446;DHT22;6795;51.232;3.764;2023-09-08T19:14:53;18.70;99.90
13446;DHT22;6795;51.232;3.764;2023-09-08T19:18:22;18.50;99.90
13446;DHT22;6795;51.232;3.764;2023-09-08T19:21:42;18.40;99.90
13446;DHT22;6795;51.232;3.764;2023-09-08T19:25:16;18.20;99.90
13446;DHT22;6795;51.232;3.764;2023-09-08T19:28:17;18.10;99.90
13446;DHT22;6795;51.232;3.764;2023-09-08T19:31:50;18.00;99.90
13446;DHT22;6795;51.232;3.764;2023-09-08T19:38:54;17.80;99.90
13446;DHT22;6795;51.232;3.764;2023-09-08T19:42:45;17.80;99.90
13446;DHT22;6795;51.232;3.764;2023-09-08T19:46:25;18.00;99.90
13446;DHT22;6795;51.232;3.764;2023-09-08T19:49:38;17.90;99.90
13446;DHT22;6795;51.232;3.764;2023-09-08T19:53:22;17.80;99.90
13446;DHT22;6795;51.232;3.764;2023-09-08T19:56:49;17.80;99.90
13446;DHT22;6795;51.232;3.764;2023-09-08T20:00:38;17.60;99.90
13446;DHT22;6795;51.232;3.764;2023-09-08T20:08:21;17.50;99.90
13446;DHT22;6795;51.232;3.764;2023-09-08T20:14:51;17.50;99.90
13446;DHT22;6795;51.232;3.764;2023-09-08T20:18:28;17.40;99.90
13446;DHT22;6795;51.232;3.764;2023-09-08T20:21:34;17.20;99.90
13446;DHT22;6795;51.232;3.764;2023-09-08T20:28:53;17.30;99.90
13446;DHT22;6795;51.232;3.764;2023-09-08T20:32:06;17.30;99.90
13446;DHT22;6795;51.232;3.764;2023-09-08T20:35:23;17.30;99.90
13446;DHT22;6795;51.232;3.764;2023-09-08T20:38:31;17.30;99.90
13446;DHT22;6795;51.232;3.764;2023-09-08T20:42:25;17.60;99.90
13446;DHT22;6795;51.232;3.764;2023-09-08T20:45:36;17.50;99.90
13446;DHT22;6795;51.232;3.764;2023-09-08T20:49:22;17.40;99.90
13446;DHT22;6795;51.232;3.764;2023-09-08T20:52:31;17.20;99.90
13446;DHT22;6795;51.232;3.764;2023-09-08T20:56:09;17.20;99.90
13446;DHT22;6795;51.232;3.764;2023-09-08T20:59:20;17.20;99.90
13446;DHT22;6795;51.232;3.764;2023-09-08T21:02:36;16.90;99.90
13446;DHT22;6795;51.232;3.764;2023-09-08T21:06:06;16.80;99.90
13446;DHT22;6795;51.232;3.764;2023-09-08T21:10:06;16.90;99.90
13446;DHT22;6795;51.232;3.764;2023-09-08T21:13:09;16.80;99.90
13446;DHT22;6795;51.232;3.764;2023-09-08T21:16:42;16.70;99.90
13446;DHT22;6795;51.232;3.764;2023-09-08T21:20:06;16.60;99.90
13446;DHT22;6795;51.232;3.764;2023-09-08T21:23:18;16.70;99.90
13446;DHT22;6795;51.232;3.764;2023-09-08T21:26:28;17.00;99.90
13446;DHT22;6795;51.232;3.764;2023-09-08T21:29:39;17.20;99.90
13446;DHT22;6795;51.232;3.764;2023-09-08T21:33:05;17.10;99.90
13446;DHT22;6795;51.232;3.764;2023-09-08T21:36:36;16.90;99.90
13446;DHT22;6795;51.232;3.764;2023-09-08T21:39:51;16.70;99.90
13446;DHT22;6795;51.232;3.764;2023-09-08T21:42:56;16.70;99.90
13446;DHT22;6795;51.232;3.764;2023-09-08T21:46:10;16.60;99.90
13446;DHT22;6795;51.232;3.764;2023-09-08T21:49:36;16.50;99.90
13446;DHT22;6795;51.232;3.764;2023-09-08T21:53:45;16.40;99.90
13446;DHT22;6795;51.232;3.764;2023-09-08T21:56:57;16.30;99.90
13446;DHT22;6795;51.232;3.764;2023-09-08T22:00:04;16.20;99.90
13446;DHT22;6795;51.232;3.764;2023-09-08T22:04:03;16.10;99.90
13446;DHT22;6795;51.232;3.764;2023-09-08T22:07:42;16.00;99.90
13446;DHT22;6795;51.232;3.764;2023-09-08T22:10:48;16.00;99.90
13446;DHT22;6795;51.232;3.764;2023-09-08T22:13:46;16.00;99.90
13446;DHT22;6795;51.232;3.764;2023-09-08T22:17:06;15.90;99.90
13446;DHT22;6795;51.232;3.764;2023-09-08T22:20:13;15.80;99.90
13446;DHT22;6795;51.232;3.764;2023-09-08T22:23:15;15.70;99.90
13446;DHT22;6795;51.232;3.764;2023-09-08T22:30:16;15.50;99.90
13446;DHT22;6795;51.232;3.764;2023-09-08T22:34:16;15.60;99.90
13446;DHT22;6795;51.232;3.764;2023-09-08T22:37:20;15.50;99.90
13446;DHT22;6795;51.232;3.764;2023-09-08T22:40:31;15.60;99.90
13446;DHT22;6795;51.232;3.764;2023-09-08T22:43:37;15.70;99.90
13446;DHT22;6795;51.232;3.764;2023-09-08T22:47:20;15.70;99.90
13446;DHT22;6795;51.232;3.764;2023-09-08T22:50:29;15.70;99.90
13446;DHT22;6795;51.232;3.764;2023-09-08T22:53:55;15.70;99.90
13446;DHT22;6795;51.232;3.764;2023-09-08T22:56:56;15.70;99.90
13446;DHT22;6795;51.232;3.764;2023-09-08T23:00:11;15.60;99.90
13446;DHT22;6795;51.232;3.764;2023-09-08T23:07:28;15.60;99.90
13446;DHT22;6795;51.232;3.764;2023-09-08T23:10:46;15.70;99.90
13446;DHT22;6795;51.232;3.764;2023-09-08T23:14:04;15.60;99.90
13446;DHT22;6795;51.232;3.764;2023-09-08T23:17:41;15.50;99.90
13446;DHT22;6795;51.232;3.764;2023-09-08T23:20:44;15.40;99.90
13446;DHT22;6795;51.232;3.764;2023-09-08T23:24:30;15.30;99.90
13446;DHT22;6795;51.232;3.764;2023-09-08T23:27:48;15.20;99.90
13446;DHT22;6795;51.232;3.764;2023-09-08T23:31:25;15.20;99.90
13446;DHT22;6795;51.232;3.764;2023-09-08T23:35:14;15.10;99.90
13446;DHT22;6795;51.232;3.764;2023-09-08T23:42:08;15.20;99.90
13446;DHT22;6795;51.232;3.764;2023-09-08T23:45:23;15.20;99.90
13446;DHT22;6795;51.232;3.764;2023-09-08T23:48:43;15.10;99.90
13446;DHT22;6795;51.232;3.764;2023-09-08T23:52:47;15.40;99.90
13446;DHT22;6795;51.232;3.764;2023-09-08T23:55:35;15.40;99.90
13446;DHT22;6795;51.232;3.764;2023-09-08T23:58:56;15.40;99.90
